Time;durP1;ratioP1;P1;durP2;ratioP2;P2;SDS_P1;SDS_P2;PMS_P1;PMS_P2;Temp;Humidity;BMP_temperature;BMP_pressure;BME280_temperature;BME280_humidity;BME280_pressure;Samples;Min_cycle;Max_cycle;Signal;HPM_P1;HPM_P2
2023/07/17 00:00:03;;;;;;;0.00;0.00;;;;;;;16.41;100.00;101425.25;5033181;28;20025;-47
2023/07/17 00:02:29;;;;;;;0.00;0.00;;;;;;;16.43;100.00;101428.59;5032655;28;20184;-47
2023/07/17 00:04:54;;;;;;;0.00;0.00;;;;;;;16.40;100.00;101429.03;5033188;28;20094;-48
2023/07/17 00:07:20;;;;;;;0.00;0.00;;;;;;;16.38;100.00;101433.00;5032895;28;20025;-47
2023/07/17 00:09:46;;;;;;;0.00;0.00;;;;;;;16.33;100.00;101432.78;5034388;28;20377;-45
2023/07/17 00:12:11;;;;;;;0.00;0.00;;;;;;;16.33;100.00;101430.06;5033216;28;20079;-48
2023/07/17 00:14:37;;;;;;;0.00;0.00;;;;;;;16.36;100.00;101430.47;5032626;28;20022;-51
2023/07/17 00:17:02;;;;;;;0.00;0.00;;;;;;;16.34;100.00;101427.13;5032044;28;20431;-48
2023/07/17 00:19:28;;;;;;;0.00;0.00;;;;;;;16.36;100.00;101424.22;5030669;28;20065;-46
2023/07/17 00:21:53;;;;;;;0.00;0.00;;;;;;;16.36;100.00;101419.59;5032208;28;20365;-47
2023/07/17 00:24:18;;;;;;;0.00;0.00;;;;;;;16.34;100.00;101424.41;5032531;28;20026;-46
2023/07/17 00:26:44;;;;;;;0.00;0.00;;;;;;;16.39;100.00;101435.47;5032126;28;20030;-47
2023/07/17 00:29:23;;;;;;;0.00;0.00;;;;;;;16.43;100.00;101435.94;5032030;28;20029;-50
2023/07/17 00:31:49;;;;;;;0.00;0.00;;;;;;;16.39;100.00;101440.09;5031632;28;20034;-51
2023/07/17 00:34:15;;;;;;;0.00;0.00;;;;;;;16.39;100.00;101430.06;5031435;28;20095;-50
2023/07/17 00:36:40;;;;;;;0.00;0.00;;;;;;;16.34;100.00;101435.25;5031564;28;20582;-51
2023/07/17 00:39:05;;;;;;;0.00;0.00;;;;;;;16.34;100.00;101429.81;5031579;28;20408;-49
2023/07/17 00:41:31;;;;;;;0.00;0.00;;;;;;;16.36;100.00;101432.34;5031261;28;20030;-49
2023/07/17 00:43:56;;;;;;;0.00;0.00;;;;;;;16.37;100.00;101426.69;5031410;28;20037;-50
2023/07/17 00:46:22;;;;;;;0.00;0.00;;;;;;;16.41;100.00;101433.41;5031337;28;20034;-48
2023/07/17 00:48:48;;;;;;;0.00;0.00;;;;;;;16.39;100.00;101430.06;5031385;28;20079;-48
2023/07/17 00:51:13;;;;;;;0.00;0.00;;;;;;;16.42;100.00;101429.63;5031374;28;20033;-47
2023/07/17 00:53:39;;;;;;;0.00;0.00;;;;;;;16.38;100.00;101425.66;5031221;28;20026;-49
2023/07/17 00:56:04;;;;;;;0.00;0.00;;;;;;;16.39;100.00;101427.34;5031552;28;20044;-51
2023/07/17 00:58:29;;;;;;;0.00;0.00;;;;;;;16.38;100.00;101422.97;5046786;28;20021;-47
2023/07/17 01:00:55;;;;;;;0.00;0.00;;;;;;;16.40;100.00;101426.31;5029894;28;20108;-47
2023/07/17 01:03:21;;;;;;;0.00;0.00;;;;;;;16.44;100.00;101419.41;5031307;28;20029;-44
2023/07/17 01:05:46;;;;;;;0.00;0.00;;;;;;;16.45;100.00;101418.34;5031579;28;20033;-47
2023/07/17 01:08:11;;;;;;;0.00;0.00;;;;;;;16.48;100.00;101410.84;5031414;28;20026;-47
2023/07/17 01:10:37;;;;;;;0.00;0.00;;;;;;;16.50;100.00;101415.03;5030551;28;20033;-46
2023/07/17 01:13:03;;;;;;;0.00;0.00;;;;;;;16.52;100.00;101415.66;5030871;28;20109;-48
2023/07/17 01:15:29;;;;;;;0.00;0.00;;;;;;;16.56;100.00;101422.38;5029301;28;20489;-47
2023/07/17 01:17:54;;;;;;;0.00;0.00;;;;;;;16.57;100.00;101420.47;5030905;28;20108;-48
2023/07/17 01:20:20;;;;;;;0.00;0.00;;;;;;;16.59;100.00;101415.69;5031142;28;20029;-48
2023/07/17 01:22:53;;;;;;;0.00;0.00;;;;;;;16.60;100.00;101420.06;5030694;28;20384;-46
2023/07/17 01:25:19;;;;;;;0.00;0.00;;;;;;;16.62;100.00;101423.41;5029582;28;20021;-48
2023/07/17 01:27:44;;;;;;;0.00;0.00;;;;;;;16.58;100.00;101422.13;5030560;28;20037;-45
2023/07/17 01:30:10;;;;;;;0.00;0.00;;;;;;;16.57;100.00;101415.88;5030590;28;20365;-47
2023/07/17 01:32:35;;;;;;;0.00;0.00;;;;;;;16.57;100.00;101425.91;5030461;28;20124;-47
2023/07/17 01:35:01;;;;;;;0.00;0.00;;;;;;;16.64;100.00;101429.44;5035304;28;20030;-45
2023/07/17 01:37:26;;;;;;;0.00;0.00;;;;;;;16.60;100.00;101420.06;5037907;28;20030;-47
2023/07/17 01:39:51;;;;;;;0.00;0.00;;;;;;;16.63;100.00;101425.91;5035485;28;20109;-46
2023/07/17 01:42:17;;;;;;;0.00;0.00;;;;;;;16.62;100.00;101429.66;5030631;28;20080;-49
2023/07/17 01:44:42;;;;;;;0.00;0.00;;;;;;;16.62;100.00;101424.25;5030504;28;20045;-47
2023/07/17 01:47:07;;;;;;;0.00;0.00;;;;;;;16.62;100.00;101415.25;5030555;28;20029;-45
2023/07/17 01:49:33;;;;;;;0.00;0.00;;;;;;;16.58;100.00;101417.53;5030323;28;20036;-46
2023/07/17 01:51:58;;;;;;;0.00;0.00;;;;;;;16.60;100.00;101425.50;5030292;28;20388;-46
2023/07/17 01:54:23;;;;;;;0.00;0.00;;;;;;;16.57;100.00;101421.31;5030298;28;20030;-46
2023/07/17 01:56:49;;;;;;;0.00;0.00;;;;;;;16.54;100.00;101416.28;5030453;28;20050;-45
2023/07/17 01:59:14;;;;;;;0.00;0.00;;;;;;;16.56;100.00;101427.78;5030266;28;20574;-46
2023/07/17 02:01:39;;;;;;;0.00;0.00;;;;;;;16.55;100.00;101407.09;5030393;28;20032;-47
2023/07/17 02:04:05;;;;;;;0.00;0.00;;;;;;;16.55;100.00;101415.22;5030351;28;20038;-45
2023/07/17 02:06:30;;;;;;;0.00;0.00;;;;;;;16.51;100.00;101424.88;5030360;28;20113;-46
2023/07/17 02:08:56;;;;;;;0.00;0.00;;;;;;;16.52;100.00;101422.97;5045639;28;20049;-47
2023/07/17 02:11:22;;;;;;;0.00;0.00;;;;;;;16.51;100.00;101422.16;5030379;28;20041;-47
2023/07/17 02:13:48;;;;;;;0.00;0.00;;;;;;;16.49;100.00;101420.69;5030123;28;20472;-48
2023/07/17 02:16:13;;;;;;;0.00;0.00;;;;;;;16.45;100.00;101417.53;5028875;28;20025;-47
2023/07/17 02:18:38;;;;;;;0.00;0.00;;;;;;;16.44;100.00;101422.13;5028769;28;20527;-47
2023/07/17 02:21:04;;;;;;;0.00;0.00;;;;;;;16.44;100.00;101424.00;5030029;28;20071;-46
2023/07/17 02:23:30;;;;;;;0.00;0.00;;;;;;;16.39;100.00;101434.66;5029978;28;20116;-46
2023/07/17 02:25:55;;;;;;;0.00;0.00;;;;;;;16.37;100.00;101428.59;5032618;28;20494;-47
2023/07/17 02:28:20;;;;;;;0.00;0.00;;;;;;;16.36;100.00;101425.03;5033810;28;20037;-47
2023/07/17 02:30:46;;;;;;;0.00;0.00;;;;;;;16.32;100.00;101414.78;5032457;28;20112;-48
2023/07/17 02:33:11;;;;;;;0.00;0.00;;;;;;;16.28;100.00;101421.69;5034203;28;20030;-47
2023/07/17 02:35:37;;;;;;;0.00;0.00;;;;;;;16.31;100.00;101427.53;5034352;28;20502;-46
2023/07/17 02:38:02;;;;;;;0.00;0.00;;;;;;;16.27;100.00;101431.69;5034064;28;20379;-47
2023/07/17 02:40:28;;;;;;;0.00;0.00;;;;;;;16.23;100.00;101430.44;5033927;28;20030;-48
2023/07/17 02:42:53;;;;;;;0.00;0.00;;;;;;;16.25;100.00;101433.78;5033793;28;20026;-47
2023/07/17 02:45:18;;;;;;;0.00;0.00;;;;;;;16.26;100.00;101435.47;5033485;28;20147;-47
2023/07/17 02:47:44;;;;;;;0.00;0.00;;;;;;;16.27;100.00;101431.69;5033687;28;20032;-47
2023/07/17 02:50:10;;;;;;;0.00;0.00;;;;;;;16.25;100.00;101433.78;5033384;28;20069;-48
2023/07/17 02:52:36;;;;;;;0.00;0.00;;;;;;;16.24;100.00;101442.97;5032226;28;20030;-49
2023/07/17 02:55:04;;;;;;;0.00;0.00;;;;;;;16.24;100.00;101434.81;5033551;28;20037;-45
2023/07/17 02:57:32;;;;;;;;;;;;;;;16.22;100.00;101435.03;5033595;28;20124;-48
2023/07/17 02:59:57;;;;;;;0.00;0.00;;;;;;;16.20;100.00;101444.44;5033081;28;19913;-46
2023/07/17 03:02:23;;;;;;;0.00;0.00;;;;;;;16.19;100.00;101440.88;5033306;28;20025;-50
2023/07/17 03:04:48;;;;;;;0.00;0.00;;;;;;;16.18;100.00;101432.94;5033525;28;20429;-44
2023/07/17 03:07:14;;;;;;;0.00;0.00;;;;;;;16.16;100.00;101440.44;5035223;28;20051;-45
2023/07/17 03:09:39;;;;;;;0.00;0.00;;;;;;;16.12;100.00;101445.44;5037220;28;20064;-46
2023/07/17 03:12:05;;;;;;;0.00;0.00;;;;;;;16.11;100.00;101442.94;5035900;28;20037;-46
2023/07/17 03:14:30;;;;;;;0.00;0.00;;;;;;;16.09;100.00;101445.00;5033706;28;20026;-47
2023/07/17 03:16:56;;;;;;;0.00;0.00;;;;;;;16.07;100.00;101447.94;5033699;28;20363;-45
2023/07/17 03:19:22;;;;;;;0.00;0.00;;;;;;;16.09;100.00;101450.44;5033434;28;20026;-47
2023/07/17 03:21:47;;;;;;;0.00;0.00;;;;;;;16.12;100.00;101455.47;5033439;28;20392;-49
2023/07/17 03:24:12;;;;;;;0.00;0.00;;;;;;;16.08;100.00;101443.34;5033194;28;20216;-47
2023/07/17 03:26:38;;;;;;;0.00;0.00;;;;;;;16.05;100.00;101455.44;5033023;28;20104;-48
2023/07/17 03:29:04;;;;;;;0.00;0.00;;;;;;;16.00;100.00;101453.31;5033135;28;20032;-48
2023/07/17 03:31:29;;;;;;;0.00;0.00;;;;;;;15.94;100.00;101456.88;5033175;28;20021;-47
2023/07/17 03:33:54;;;;;;;0.00;0.00;;;;;;;15.93;100.00;101462.47;5032960;28;20029;-46
2023/07/17 03:36:20;;;;;;;0.00;0.00;;;;;;;15.91;100.00;101453.72;5030863;28;20472;-46
2023/07/17 03:38:45;;;;;;;0.00;0.00;;;;;;;15.92;100.00;101458.94;5032743;28;20053;-46
2023/07/17 03:41:11;;;;;;;0.00;0.00;;;;;;;15.93;100.00;101457.91;5032551;28;20119;-46
2023/07/17 03:43:36;;;;;;;0.00;0.00;;;;;;;15.97;100.00;101461.88;5032773;28;20468;-46
2023/07/17 03:46:01;;;;;;;0.00;0.00;;;;;;;16.01;100.00;101459.63;5032477;28;20025;-47
2023/07/17 03:48:27;;;;;;;0.00;0.00;;;;;;;16.07;100.00;101464.22;5032631;28;20483;-47
2023/07/17 03:50:52;;;;;;;0.00;0.00;;;;;;;16.13;100.00;101487.00;5032638;28;20088;-46
2023/07/17 03:53:17;;;;;;;0.00;0.00;;;;;;;15.83;100.00;101494.63;5032253;28;20025;-48
2023/07/17 03:55:43;;;;;;;0.00;0.00;;;;;;;15.65;100.00;101498.66;5032287;28;20028;-50
2023/07/17 03:58:08;;;;;;;0.00;0.00;;;;;;;15.54;100.00;101497.34;5032904;28;20037;-50
2023/07/17 04:00:33;;;;;;;0.00;0.00;;;;;;;15.45;100.00;101503.09;5032211;28;20025;-51
2023/07/17 04:02:59;;;;;;;0.00;0.00;;;;;;;15.35;100.00;101515.16;5032408;28;20037;-52
2023/07/17 04:05:24;;;;;;;0.00;0.00;;;;;;;15.28;100.00;101519.69;5032181;28;20476;-48
2023/07/17 04:07:50;;;;;;;0.00;0.00;;;;;;;15.21;100.00;101523.38;5032259;28;20037;-48
2023/07/17 04:10:16;;;;;;;0.00;0.00;;;;;;;15.18;100.00;101519.16;5032608;28;20036;-51
2023/07/17 04:12:42;;;;;;;0.00;0.00;;;;;;;15.22;100.00;101519.59;5032832;28;20030;-51
2023/07/17 04:15:08;;;;;;;0.00;0.00;;;;;;;15.19;100.00;101518.13;5032350;28;20554;-47
2023/07/17 04:17:33;;;;;;;0.00;0.00;;;;;;;15.21;100.00;101529.63;5032625;28;20083;-47
2023/07/17 04:19:59;;;;;;;0.00;0.00;;;;;;;15.21;100.00;101520.66;5032363;28;20018;-45
2023/07/17 04:22:24;;;;;;;0.00;0.00;;;;;;;15.23;100.00;101521.31;5032306;28;20029;-46
2023/07/17 04:24:49;;;;;;;0.00;0.00;;;;;;;15.24;100.00;101514.84;5032245;28;20049;-48
2023/07/17 04:27:15;;;;;;;0.00;0.00;;;;;;;15.25;100.00;101519.25;5032183;28;20033;-47
2023/07/17 04:29:40;;;;;;;0.00;0.00;;;;;;;15.27;100.00;101518.00;5032241;28;20038;-47
2023/07/17 04:32:06;;;;;;;0.00;0.00;;;;;;;15.29;100.00;101517.78;5033085;28;20025;-47
2023/07/17 04:34:31;;;;;;;0.00;0.00;;;;;;;15.32;100.00;101522.81;5033192;28;20486;-45
2023/07/17 04:36:57;;;;;;;0.00;0.00;;;;;;;15.32;100.00;101523.69;5036371;28;20025;-46
2023/07/17 04:39:22;;;;;;;0.00;0.00;;;;;;;15.37;100.00;101520.34;5033424;28;20025;-47
2023/07/17 04:41:49;;;;;;;0.00;0.00;;;;;;;15.43;100.00;101535.88;5032535;28;20051;-46
2023/07/17 04:44:14;;;;;;;0.00;0.00;;;;;;;15.47;100.00;101539.84;5031985;28;20104;-46
2023/07/17 04:46:39;;;;;;;0.00;0.00;;;;;;;15.51;100.00;101535.72;5031997;28;20083;-49
2023/07/17 04:49:05;;;;;;;0.00;0.00;;;;;;;15.54;100.00;101539.91;5031929;28;20028;-48
2023/07/17 04:51:30;;;;;;;0.00;0.00;;;;;;;15.55;100.00;101542.41;5031621;28;20500;-49
2023/07/17 04:53:56;;;;;;;0.00;0.00;;;;;;;15.63;100.00;101548.72;5031649;28;20021;-50
2023/07/17 04:56:21;;;;;;;0.00;0.00;;;;;;;15.69;100.00;101550.66;5029994;28;20076;-46
2023/07/17 04:58:46;;;;;;;0.00;0.00;;;;;;;15.75;100.00;101547.19;5031512;28;20498;-47
2023/07/17 05:01:12;;;;;;;0.00;0.00;;;;;;;15.77;100.00;101539.66;5031206;28;20463;-48
2023/07/17 05:03:37;;;;;;;0.00;0.00;;;;;;;15.85;100.00;101550.38;5031073;28;20031;-49
2023/07/17 05:06:03;;;;;;;0.00;0.00;;;;;;;15.85;100.00;101547.66;5031586;28;20365;-49
2023/07/17 05:08:28;;;;;;;0.00;0.00;;;;;;;15.90;100.00;101550.59;5031353;28;20037;-48
2023/07/17 05:10:58;;;;;;;0.00;0.00;;;;;;;15.92;100.00;101550.41;5032014;28;20049;-47
2023/07/17 05:13:23;;;;;;;0.00;0.00;;;;;;;16.04;100.00;101556.13;5031529;28;20100;-47
2023/07/17 05:15:50;;;;;;;0.00;0.00;;;;;;;16.15;100.00;101566.41;5031070;28;20037;-49
2023/07/17 05:18:15;;;;;;;0.00;0.00;;;;;;;16.13;100.00;101554.91;5031185;28;20029;-45
2023/07/17 05:20:48;;;;;;;0.00;0.00;;;;;;;16.15;100.00;101558.25;5031467;28;20044;-45
2023/07/17 05:23:14;;;;;;;0.00;0.00;;;;;;;16.15;100.00;101564.53;5031498;28;20037;-50
2023/07/17 05:25:39;;;;;;;0.00;0.00;;;;;;;16.23;100.00;101558.09;5031405;28;20017;-50
2023/07/17 05:28:05;;;;;;;0.00;0.00;;;;;;;16.28;100.00;101562.94;5031583;28;20387;-49
2023/07/17 05:30:34;;;;;;;0.00;0.00;;;;;;;16.33;100.00;101560.44;5031347;28;20033;-49
2023/07/17 05:33:00;;;;;;;0.00;0.00;;;;;;;16.49;100.00;101575.56;5031134;28;20087;-49
2023/07/17 05:35:26;;;;;;;0.00;0.00;;;;;;;16.60;100.00;101558.66;5030805;28;20025;-49
2023/07/17 05:37:53;;;;;;;0.00;0.00;;;;;;;16.75;100.00;101559.31;5030590;28;20033;-49
2023/07/17 05:40:18;;;;;;;0.00;0.00;;;;;;;16.69;100.00;101557.41;5030497;28;20112;-48
2023/07/17 05:42:44;;;;;;;0.00;0.00;;;;;;;16.74;100.00;101573.09;5030509;28;20438;-51
2023/07/17 05:45:09;;;;;;;0.00;0.00;;;;;;;16.74;100.00;101573.94;5030678;28;20022;-49
2023/07/17 05:47:36;;;;;;;0.00;0.00;;;;;;;16.74;100.00;101571.22;5030440;28;20415;-47
2023/07/17 05:50:01;;;;;;;0.00;0.00;;;;;;;16.76;100.00;101577.28;5030895;28;20542;-48
2023/07/17 05:52:27;;;;;;;0.00;0.00;;;;;;;16.75;100.00;101575.63;5030617;28;20026;-49
2023/07/17 05:54:52;;;;;;;0.00;0.00;;;;;;;16.88;100.00;101580.31;5030463;28;20126;-50
2023/07/17 05:57:17;;;;;;;0.00;0.00;;;;;;;17.00;100.00;101580.53;5030483;28;20048;-51
2023/07/17 05:59:43;;;;;;;0.00;0.00;;;;;;;17.03;100.00;101583.66;5031054;28;20025;-47
2023/07/17 06:02:08;;;;;;;0.00;0.00;;;;;;;17.05;100.00;101587.00;5035760;28;20048;-47
2023/07/17 06:04:33;;;;;;;0.00;0.00;;;;;;;16.95;100.00;101580.31;5037967;28;20496;-47
2023/07/17 06:06:59;;;;;;;0.00;0.00;;;;;;;16.99;100.00;101576.13;5037716;28;20033;-45
2023/07/17 06:09:24;;;;;;;0.00;0.00;;;;;;;17.05;100.00;101592.44;5034681;28;20029;-43
2023/07/17 06:11:49;;;;;;;0.00;0.00;;;;;;;17.12;100.00;101592.47;5034855;28;20076;-46
2023/07/17 06:14:15;;;;;;;0.00;0.00;;;;;;;17.15;100.00;101585.78;5034741;28;20022;-46
2023/07/17 06:16:40;;;;;;;0.00;0.00;;;;;;;17.23;100.00;101589.13;5034395;28;20296;-48
2023/07/17 06:19:06;;;;;;;0.00;0.00;;;;;;;17.33;100.00;101586.84;5034327;28;20032;-46
2023/07/17 06:21:31;;;;;;;0.00;0.00;;;;;;;17.47;100.00;101600.44;5034194;28;20395;-45
2023/07/17 06:23:56;;;;;;;0.00;0.00;;;;;;;17.36;100.00;101588.31;5034050;28;20026;-49
2023/07/17 06:26:22;;;;;;;0.00;0.00;;;;;;;17.44;100.00;101590.81;5033987;28;20111;-48
2023/07/17 06:28:47;;;;;;;0.00;0.00;;;;;;;17.76;100.00;101591.84;5034203;28;20026;-47
2023/07/17 06:31:12;;;;;;;0.00;0.00;;;;;;;18.18;100.00;101603.31;5033839;28;20035;-48
2023/07/17 06:33:38;;;;;;;0.00;0.00;;;;;;;18.04;100.00;101590.78;5032664;28;20018;-47
2023/07/17 06:36:03;;;;;;;0.00;0.00;;;;;;;17.95;100.00;101597.50;5033706;28;20029;-46
2023/07/17 06:38:29;;;;;;;0.00;0.00;;;;;;;17.84;100.00;101606.31;5033604;28;20026;-49
2023/07/17 06:40:54;;;;;;;0.00;0.00;;;;;;;18.13;100.00;101602.28;5034610;28;20033;-45
2023/07/17 06:43:19;;;;;;;0.00;0.00;;;;;;;18.90;100.00;101592.34;5034105;28;20100;-47
2023/07/17 06:45:45;;;;;;;0.00;0.00;;;;;;;19.58;100.00;101593.53;5015904;28;20060;-47
2023/07/17 06:48:10;;;;;;;0.00;0.00;;;;;;;20.22;100.00;101591.44;5033829;28;20025;-47
2023/07/17 06:50:35;;;;;;;0.00;0.00;;;;;;;20.62;100.00;101591.84;5033604;28;20055;-49
2023/07/17 06:53:01;;;;;;;0.00;0.00;;;;;;;20.92;100.00;101593.72;5033429;28;20112;-47
2023/07/17 06:55:27;;;;;;;0.00;0.00;;;;;;;20.75;100.00;101591.66;5033569;28;20025;-47
2023/07/17 06:57:53;;;;;;;0.00;0.00;;;;;;;20.46;100.00;101598.75;5032442;28;20082;-49
2023/07/17 07:00:18;;;;;;;0.00;0.00;;;;;;;20.60;100.00;101599.44;5033889;28;20053;-48
2023/07/17 07:02:43;;;;;;;0.00;0.00;;;;;;;21.10;100.00;101590.94;5033825;28;20052;-46
2023/07/17 07:05:09;;;;;;;0.00;0.00;;;;;;;21.07;100.00;101599.63;5042365;28;20017;-45
2023/07/17 07:07:34;;;;;;;0.00;0.00;;;;;;;20.71;100.00;101611.50;5053946;28;20044;-49
2023/07/17 07:10:00;;;;;;;0.00;0.00;;;;;;;20.92;100.00;101610.16;5052586;28;20108;-50
2023/07/17 07:12:25;;;;;;;0.00;0.00;;;;;;;21.34;100.00;101615.63;5051240;28;20425;-46
2023/07/17 07:14:50;;;;;;;0.00;0.00;;;;;;;22.00;100.00;101620.00;5052870;28;20105;-47
2023/07/17 07:17:16;;;;;;;0.00;0.00;;;;;;;22.15;100.00;101614.03;5053028;28;20052;-51
2023/07/17 07:19:42;;;;;;;0.00;0.00;;;;;;;22.20;100.00;101613.34;5052545;28;20021;-47
2023/07/17 07:22:07;;;;;;;0.00;0.00;;;;;;;22.35;100.00;101628.22;5052710;28;20025;-49
2023/07/17 07:24:33;;;;;;;0.00;0.00;;;;;;;22.83;95.24;101637.16;5052404;28;20025;-46
2023/07/17 07:26:58;;;;;;;0.00;0.00;;;;;;;22.74;94.62;101630.38;5052760;28;20025;-48
2023/07/17 07:29:23;;;;;;;0.00;0.00;;;;;;;22.41;97.93;101631.91;5051390;28;20117;-47
2023/07/17 07:31:49;;;;;;;0.22;0.00;;;;;;;21.31;100.00;101633.38;5053494;28;20025;-47
2023/07/17 07:34:15;;;;;;;0.00;0.00;;;;;;;20.96;100.00;101641.47;5054797;28;20092;-46
2023/07/17 07:36:40;;;;;;;0.00;0.00;;;;;;;21.11;100.00;101633.66;5054006;28;20468;-47
2023/07/17 07:39:05;;;;;;;0.00;0.00;;;;;;;21.52;100.00;101645.69;5052421;28;20021;-45
2023/07/17 07:41:35;;;;;;;0.00;0.00;;;;;;;22.11;98.67;101663.00;5052499;28;20028;-45
2023/07/17 07:44:01;;;;;;;0.00;0.00;;;;;;;22.72;96.69;101646.25;5052533;28;20029;-50
2023/07/17 07:46:27;;;;;;;0.00;0.00;;;;;;;22.80;95.59;101656.81;5052373;28;20025;-44
2023/07/17 07:48:52;;;;;;;0.00;0.00;;;;;;;22.48;93.67;101665.50;5051934;28;20487;-48
2023/07/17 07:51:18;;;;;;;0.00;0.00;;;;;;;22.10;97.97;101655.88;5052219;28;20029;-46
2023/07/17 07:53:44;;;;;;;0.00;0.00;;;;;;;22.84;95.12;101658.03;5042993;28;20037;-47
2023/07/17 07:56:09;;;;;;;0.00;0.00;;;;;;;23.48;89.85;101655.09;5032159;28;20333;-46
2023/07/17 07:58:34;;;;;;;0.00;0.00;;;;;;;23.94;90.14;101658.66;5032247;28;20021;-48
2023/07/17 08:01:00;;;;;;;0.00;0.00;;;;;;;24.16;90.05;101658.69;5032059;28;20071;-47
2023/07/17 08:03:26;;;;;;;0.00;0.00;;;;;;;24.61;87.59;101656.84;5032256;28;20040;-46
2023/07/17 08:05:52;;;;;;;0.00;0.00;;;;;;;23.99;87.47;101652.41;5032055;28;20049;-45
2023/07/17 08:08:17;;;;;;;0.00;0.00;;;;;;;23.32;92.38;101665.00;5032304;28;20544;-46
2023/07/17 08:10:43;;;;;;;0.00;0.00;;;;;;;22.77;95.03;101660.06;5047089;28;20029;-48
2023/07/17 08:13:08;;;;;;;0.00;0.00;;;;;;;22.41;100.00;101662.06;5032335;28;20025;-46
2023/07/17 08:15:33;;;;;;;0.00;0.00;;;;;;;22.04;95.28;101661.50;5032317;28;20104;-48
2023/07/17 08:17:59;;;;;;;0.00;0.00;;;;;;;22.21;95.85;101661.63;5032340;28;20112;-47
2023/07/17 08:20:24;;;;;;;0.00;0.00;;;;;;;23.56;93.86;101671.19;5032065;28;20482;-48
2023/07/17 08:22:54;;;;;;;0.00;0.00;;;;;;;23.94;89.40;101671.56;5032125;28;20044;-49
2023/07/17 08:25:21;;;;;;;0.00;0.00;;;;;;;24.98;85.31;101668.00;5032047;28;20491;-49
2023/07/17 08:27:46;;;;;;;0.00;0.00;;;;;;;23.82;86.96;101675.22;5032090;28;20032;-47
2023/07/17 08:30:13;;;;;;;0.00;0.00;;;;;;;22.29;92.42;101675.78;5031822;28;20025;-47
2023/07/17 08:32:38;;;;;;;0.00;0.00;;;;;;;21.79;98.99;101678.97;5031876;28;20029;-46
2023/07/17 08:35:05;;;;;;;0.00;0.00;;;;;;;21.79;100.00;101672.66;5031768;28;20503;-47
2023/07/17 08:37:30;;;;;;;0.00;0.00;;;;;;;21.65;100.00;101677.53;5030391;28;20474;-49
2023/07/17 08:39:56;;;;;;;0.00;0.00;;;;;;;20.95;100.00;101680.81;5031735;28;20064;-47
2023/07/17 08:42:21;;;;;;;0.00;0.00;;;;;;;20.59;100.00;101686.13;5030062;28;20030;-47
2023/07/17 08:44:47;;;;;;;0.00;0.00;;;;;;;20.69;100.00;101684.72;5031393;28;20049;-47
2023/07/17 08:47:12;;;;;;;0.00;0.00;;;;;;;20.99;100.00;101684.78;5030432;28;20091;-47
2023/07/17 08:49:38;;;;;;;0.00;0.00;;;;;;;21.40;100.00;101678.53;5031493;28;20492;-47
2023/07/17 08:52:04;;;;;;;0.00;0.00;;;;;;;21.80;100.00;101686.13;5031371;28;20176;-47
2023/07/17 08:54:30;;;;;;;0.00;0.00;;;;;;;22.14;100.00;101676.25;5030636;28;20371;-46
2023/07/17 08:57:03;;;;;;;0.00;0.00;;;;;;;22.09;99.86;101678.03;5031731;28;20049;-47
2023/07/17 08:59:33;;;;;;;0.00;0.00;;;;;;;21.55;100.00;101680.84;5032480;28;20065;-47
2023/07/17 09:02:00;;;;;;;0.00;0.00;;;;;;;21.33;100.00;101691.47;5033114;28;20053;-47
2023/07/17 09:04:32;;;;;;;0.00;0.00;;;;;;;21.21;100.00;101693.31;5032528;28;20053;-47
2023/07/17 09:06:57;;;;;;;0.00;0.00;;;;;;;22.06;99.82;101690.31;5031763;28;20076;-48
2023/07/17 09:09:23;;;;;;;0.00;0.00;;;;;;;22.07;98.65;101692.00;5031449;28;20052;-47
2023/07/17 09:12:05;;;;;;;0.00;0.00;;;;;;;21.82;100.00;101689.44;5031495;28;20551;-46
2023/07/17 09:14:30;;;;;;;0.00;0.00;;;;;;;21.76;100.00;101686.84;5031155;28;20091;-48
2023/07/17 09:17:04;;;;;;;0.00;0.00;;;;;;;21.41;100.00;101684.88;5030140;28;20022;-48
2023/07/17 09:19:31;;;;;;;0.00;0.00;;;;;;;21.86;100.00;101696.16;5031968;28;20037;-50
2023/07/17 09:22:01;;;;;;;0.00;0.00;;;;;;;21.92;99.74;101702.59;5031571;28;20033;-47
2023/07/17 09:24:27;;;;;;;0.00;0.00;;;;;;;21.91;97.63;101696.28;5031489;28;20419;-46
2023/07/17 09:26:56;;;;;;;0.00;0.00;;;;;;;22.05;97.19;101701.53;5032080;28;20032;-46
2023/07/17 09:29:23;;;;;;;0.00;0.00;;;;;;;22.09;96.09;101705.44;5032355;28;20032;-48
2023/07/17 09:31:49;;;;;;;0.00;0.00;;;;;;;22.06;98.32;101706.75;5032724;28;20124;-48
2023/07/17 09:34:15;;;;;;;0.00;0.00;;;;;;;21.50;100.00;101699.03;5031703;28;20069;-48
2023/07/17 09:36:41;;;;;;;0.00;0.00;;;;;;;22.43;99.41;101698.31;5031370;28;20056;-49
2023/07/17 09:39:07;;;;;;;0.00;0.00;;;;;;;23.09;97.01;101693.41;5031289;28;20026;-46
2023/07/17 09:41:33;;;;;;;0.00;0.00;;;;;;;22.87;96.71;101706.09;5031425;28;20033;-45
2023/07/17 09:44:05;;;;;;;0.00;0.00;;;;;;;22.53;94.11;101701.28;5031527;28;20025;-46
2023/07/17 09:46:35;;;;;;;0.00;0.00;;;;;;;21.77;96.60;101699.47;5030767;28;20033;-47
2023/07/17 09:49:01;;;;;;;0.00;0.00;;;;;;;22.23;97.85;101695.94;5031363;28;20026;-45
2023/07/17 09:51:28;;;;;;;0.00;0.00;;;;;;;22.57;97.27;101707.97;5030800;28;20075;-46
2023/07/17 09:53:54;;;;;;;0.00;0.00;;;;;;;22.26;98.53;101716.56;5030649;28;20033;-48
2023/07/17 09:56:20;;;;;;;0.00;0.00;;;;;;;21.29;100.00;101708.59;5030278;28;20135;-47
2023/07/17 09:58:47;;;;;;;0.00;0.00;;;;;;;20.83;100.00;101710.88;5030291;28;20084;-47
2023/07/17 10:01:16;;;;;;;0.00;0.00;;;;;;;20.73;100.00;101719.63;5030317;28;20033;-51
2023/07/17 10:03:44;;;;;;;0.00;0.00;;;;;;;20.94;100.00;101714.75;5030229;28;20515;-48
2023/07/17 10:06:11;;;;;;;0.00;0.00;;;;;;;21.22;100.00;101716.88;5030212;28;20451;-48
2023/07/17 10:08:37;;;;;;;0.00;0.00;;;;;;;21.97;100.00;101715.59;5030319;28;20361;-49
2023/07/17 10:11:04;;;;;;;0.00;0.00;;;;;;;21.95;100.00;101714.97;5030473;28;20029;-47
2023/07/17 10:13:29;;;;;;;0.00;0.00;;;;;;;21.59;99.62;101730.50;5030077;28;20035;-51
2023/07/17 10:15:54;;;;;;;0.00;0.00;;;;;;;21.15;100.00;101725.19;5030082;28;20030;-48
2023/07/17 10:18:22;;;;;;;0.00;0.00;;;;;;;20.34;100.00;101727.16;5030341;28;20391;-49
2023/07/17 10:20:52;;;;;;;0.00;0.00;;;;;;;20.24;100.00;101740.47;5030412;28;20022;-46
2023/07/17 10:23:24;;;;;;;0.00;0.00;;;;;;;19.98;100.00;101737.97;5030121;28;20034;-50
2023/07/17 10:25:51;;;;;;;0.00;0.00;;;;;;;19.39;100.00;101746.34;5030203;28;20472;-48
2023/07/17 10:28:29;;;;;;;0.00;0.00;;;;;;;19.02;100.00;101767.09;5030757;28;20401;-49
2023/07/17 10:30:54;;;;;;;0.00;0.00;;;;;;;19.61;100.00;101776.03;5032184;28;20037;-49
2023/07/17 10:33:22;;;;;;;0.00;0.00;;;;;;;20.04;100.00;101772.63;5030903;28;20014;-50
2023/07/17 10:35:56;;;;;;;0.00;0.00;;;;;;;19.75;100.00;101772.22;5030164;28;20052;-46
2023/07/17 10:38:23;;;;;;;0.10;0.10;;;;;;;18.12;100.00;101805.78;5029926;28;20018;-39
2023/07/17 10:40:48;;;;;;;0.00;0.00;;;;;;;17.03;100.00;101817.53;5030731;28;20436;-40
2023/07/17 10:43:20;;;;;;;0.00;0.00;;;;;;;16.70;100.00;101841.78;5030227;28;20087;-45
2023/07/17 10:45:47;;;;;;;0.00;0.00;;;;;;;16.76;100.00;101867.34;5030136;28;20022;-46
2023/07/17 10:48:14;;;;;;;0.00;0.00;;;;;;;16.86;100.00;101876.84;5033469;28;20453;-51
2023/07/17 10:50:50;;;;;;;0.00;0.00;;;;;;;17.29;100.00;101884.84;5033343;28;20109;-48
2023/07/17 10:53:16;;;;;;;0.00;0.00;;;;;;;17.51;100.00;101907.38;5033441;28;20391;-44
2023/07/17 10:55:42;;;;;;;0.00;0.00;;;;;;;17.61;100.00;101879.75;5032330;28;20029;-47
2023/07/17 10:58:08;;;;;;;0.00;0.00;;;;;;;18.05;100.00;101881.19;5033120;28;20081;-50
2023/07/17 11:00:34;;;;;;;0.00;0.00;;;;;;;18.55;100.00;101854.41;5033312;28;20053;-44
2023/07/17 11:02:59;;;;;;;0.00;0.00;;;;;;;18.95;100.00;101835.28;5033025;28;20337;-49
2023/07/17 11:05:25;;;;;;;0.00;0.00;;;;;;;19.33;100.00;101825.56;5033173;28;20132;-48
2023/07/17 11:07:50;;;;;;;0.00;0.00;;;;;;;19.55;100.00;101804.22;5032950;28;20025;-51
2023/07/17 11:10:16;;;;;;;0.00;0.00;;;;;;;19.66;100.00;101785.28;5033131;28;20087;-47
2023/07/17 11:12:42;;;;;;;0.00;0.00;;;;;;;20.14;100.00;101786.63;5032160;28;20036;-48